Terminal Aerodrome Forecast
Issued by NWS

Home | Current Version | Previous Version | Text Only | Print | Product List | Glossary Off
Versions: 1 2 3 4 5 6 7 8 9 10 11 12 13 14 15 16

000
FTUS43 KMPX 030520
TAFAXN
TAF
KAXN 030520Z 0306/0406 20004KT P6SM OVC016
     FM031500 17008KT P6SM BKN024 OVC035
     FM031800 15012KT P6SM BKN035
     FM040100 16013KT P6SM OVC024 PROB30 0401/0406 2SM -SN OVC012=

USA.gov is the U.S. government's official web portal to all federal, state and local government web resources and services.